Data for 02/16/2016

Time Sea-Level Adjusted Pressure Absolute Pressure Temperature Relative Humidity Dew Point   
(mb) (inHg) (mb) (inHg) (C) (F) (%) (C) (F)
00:05 1017 30.03 847 25.01 4.7 40.5 56 -3.2 26.2
00:10 1017 30.03 846 24.98 4.7 40.5 56 -3.2 26.2
00:15 1017 30.03 846 24.98 4.8 40.6 56 -3.3 26
00:20 1017 30.03 846 24.98 4.8 40.6 57 -3 26.6
00:25 1017 30.03 846 24.98 4.4 40 58 -3.1 26.4
00:30 1017 30.03 846 24.98 4.5 40 57 -3.4 25.9
00:35 1017 30.03 846 24.98 4.7 40.4 57 -3.2 26.3
00:40 1017 30.03 846 24.98 4.5 40.1 58 -3 26.6
00:45 1017 30.03 846 24.98 4.3 39.7 60 -2.7 27.1
00:50 1017 30.03 846 24.98 4 39.1 61 -2.9 26.8
00:55 1017 30.03 846 24.98 3.7 38.7 62 -3 26.6
01:00 1017 30.03 846 24.98 3.7 38.6 62 -2.9 26.8
01:05 1017 30.03 846 24.98 3.6 38.5 61 -3.2 26.2
01:10 1017 30.03 846 24.98 3.8 38.8 61 -3 26.7
01:15 1017 30.03 846 24.98 3.8 38.9 61 -3.1 26.4
01:20 1017 30.03 846 24.98 3.8 38.9 62 -2.8 27
01:25 1017 30.03 846 24.98 3.7 38.7 62 -2.9 26.8
01:30 1017 30.03 846 24.98 3.8 38.8 63 -2.7 27.1
01:35 1017 30.03 846 24.98 3.8 38.8 63 -2.6 27.4
01:40 1017 30.03 846 24.98 3.6 38.4 64 -2.6 27.3
01:45 1017 30.03 846 24.98 3.2 37.8 65 -2.8 27
01:50 1016 30 846 24.98 3.4 38.2 59 -3.8 25.2
01:55 1017 30.03 846 24.98 4.4 40 57 -3.4 25.9
02:00 1016 30 846 24.98 4.6 40.3 57 -3.2 26.2
02:05 1016 30 845 24.95 4.3 39.7 59 -3 26.6
02:10 1016 30 845 24.95 4.3 39.8 58 -3.3 26
02:15 1016 30 845 24.95 4.7 40.5 58 -2.8 27
02:20 1016 30 845 24.95 4.7 40.5 57 -3.1 26.4
02:25 1016 30 845 24.95 4.5 40.1 58 -3.2 26.3
02:30 1016 30 846 24.98 4.4 39.8 57 -3.4 25.9
02:35 1016 30 845 24.95 4.4 39.9 56 -3.6 25.4
02:40 1016 30 845 24.95 4.5 40.1 58 -3 26.5
02:45 1016 30 845 24.95 4.5 40.1 56 -3.4 25.9
02:50 1016 30 845 24.95 4.5 40.1 56 -3.6 25.5
02:55 1016 30 845 24.95 4.5 40.1 56 -3.5 25.7
03:00 1016 30 845 24.95 4.4 40 57 -3.4 25.8
03:05 1016 30 845 24.95 4.3 39.8 57 -3.4 25.8
03:10 1016 30 845 24.95 4.5 40 56 -3.5 25.7
03:15 1016 30 845 24.95 4.6 40.2 56 -3.3 26
03:20 1016 30 845 24.95 4.6 40.3 57 -3.3 26.1
03:25 1016 30 845 24.95 4.9 40.7 56 -3.3 26.1
03:30 1016 30 845 24.95 5.3 41.5 54 -3.2 26.2
03:35 1016 30 845 24.95 5.4 41.7 54 -3.2 26.2
03:40 1016 30 845 24.95 5.3 41.5 54 -3.3 26
03:45 1016 30 845 24.95 5.2 41.4 54 -3.3 26.1
03:50 1016 30 845 24.95 5.2 41.4 54 -3.4 25.8
03:55 1016 30 845 24.95 5.2 41.3 55 -3.2 26.2
04:00 1016 30 845 24.95 5.2 41.4 54 -3.4 25.9
04:05 1016 30 845 24.95 5.4 41.8 54 -3 26.6
04:10 1016 30 845 24.95 5.8 42.5 54 -2.8 26.9
04:15 1016 30 845 24.95 6 42.8 53 -2.8 26.9
04:20 1016 30 845 24.95 6 42.8 54 -2.7 27.1
04:25 1016 30 845 24.95 5.8 42.4 55 -2.6 27.3
04:30 1016 30 845 24.95 5.6 42.2 55 -2.7 27.1
04:35 1016 30 845 24.95 5.6 42.1 55 -2.7 27.2
04:40 1015 29.97 845 24.95 5.5 41.8 56 -2.6 27.3
04:45 1016 30 845 24.95 5.5 41.8 55 -2.8 27
04:50 1016 30 845 24.95 5.5 41.8 56 -2.5 27.5
04:55 1016 30 845 24.95 5.3 41.6 58 -2.4 27.7
05:00 1016 30 845 24.95 5.4 41.7 56 -2.7 27.2
05:05 1016 30 845 24.95 5.8 42.5 54 -2.9 26.8
05:10 1016 30 845 24.95 6.2 43.1 51 -3.2 26.3
05:15 1016 30 845 24.95 6.6 43.9 50 -3.1 26.4
05:20 1016 30 845 24.95 6.6 44 50 -3 26.5
05:25 1016 30 845 24.95 6.5 43.8 50 -3 26.6
05:30 1016 30 845 24.95 6.4 43.6 51 -3 26.7
05:35 1016 30 845 24.95 6.4 43.4 51 -3 26.5
05:40 1016 30 845 24.95 6.3 43.3 52 -2.9 26.8
05:45 1016 30 845 24.95 6.2 43.1 52 -3 26.7
05:50 1016 30 845 24.95 6 42.9 53 -2.8 27
05:55 1016 30 845 24.95 5.8 42.5 53 -3.1 26.4
06:00 1016 30 845 24.95 6.1 42.9 50 -3.5 25.6
06:05 1016 30 845 24.95 6.3 43.4 50 -3.2 26.2
06:10 1016 30 845 24.95 6.2 43.2 51 -3.2 26.3
06:15 1016 30 845 24.95 6.1 43 52 -3.1 26.4
06:20 1016 30 845 24.95 5.9 42.7 52 -3.2 26.2
06:25 1016 30 845 24.95 6 42.8 50 -3.6 25.5
06:30 1016 30 845 24.95 6.1 43 50 -3.5 25.6
06:35 1016 30 845 24.95 6.1 42.9 51 -3.4 26
06:40 1016 30 845 24.95 6.1 42.9 48 -4 24.8
06:45 1016 30 845 24.95 6.3 43.3 48 -3.9 24.9
06:50 1016 30 845 24.95 6.3 43.4 49 -3.7 25.4
06:55 1016 30 845 24.95 6.3 43.4 47 -4.3 24.3
07:00 1015 29.97 845 24.95 6.6 43.8 46 -4.2 24.5
07:05 1015 29.97 845 24.95 6.5 43.8 46 -4.2 24.5
07:10 1015 29.97 845 24.95 6.5 43.8 47 -4.1 24.7
07:15 1015 29.97 845 24.95 6.4 43.6 47 -4.2 24.5
07:20 1015 29.97 845 24.95 6.5 43.8 45 -4.5 24
07:25 1015 29.97 844 24.92 6.8 44.2 43 -5 23
07:30 1015 29.97 844 24.92 7 44.7 43 -4.7 23.6
07:35 1015 29.97 844 24.92 7.1 44.8 43 -4.6 23.8
07:40 1015 29.97 844 24.92 7.1 44.7 43 -4.8 23.4
07:45 1015 29.97 844 24.92 7 44.7 43 -4.5 23.8
07:50 1015 29.97 844 24.92 6.9 44.5 44 -4.6 23.8
07:55 1015 29.97 844 24.92 6.9 44.5 43 -4.9 23.3
08:00 1015 29.97 844 24.92 7 44.7 43 -4.8 23.4
08:05 1015 29.97 844 24.92 6.9 44.5 44 -4.6 23.7
08:10 1015 29.97 844 24.92 6.7 44.1 45 -4.3 24.2
08:15 1015 29.97 844 24.92 6.6 43.8 46 -4.4 24.2
08:20 1015 29.97 844 24.92 6.6 43.9 45 -4.4 24
08:25 1015 29.97 844 24.92 6.7 44.1 44 -4.6 23.8
08:30 1015 29.97 844 24.92 6.7 44 45 -4.4 24.1
08:35 1015 29.97 844 24.92 6.6 44 45 -4.6 23.8
08:40 1015 29.97 844 24.92 6.7 44.1 45 -4.5 23.9
08:45 1015 29.97 844 24.92 6.7 44.1 44 -4.6 23.8
08:50 1015 29.97 844 24.92 7 44.6 43 -4.8 23.4
08:55 1015 29.97 844 24.92 7.1 44.7 42 -4.9 23.1
09:00 1015 29.97 844 24.92 7.2 44.9 42 -5 23
09:05 1015 29.97 844 24.92 7.2 44.9 42 -4.9 23.2
09:10 1015 29.97 844 24.92 7.1 44.7 43 -4.8 23.4
09:15 1015 29.97 844 24.92 6.9 44.4 42 -5.1 22.9
09:20 1015 29.97 844 24.92 7.2 44.9 40 -5.4 22.3
09:25 1015 29.97 844 24.92 7.4 45.3 39 -5.5 22
09:30 1015 29.97 845 24.95 7.7 45.8 39 -5.5 22.2
09:35 1015 29.97 845 24.95 7.6 45.7 40 -5.2 22.6
09:40 1015 29.97 845 24.95 7.5 45.5 40 -5.2 22.7
09:45 1015 29.97 845 24.95 7.5 45.5 40 -5.3 22.5
09:50 1015 29.97 845 24.95 7.5 45.6 40 -5.2 22.7
09:55 1015 29.97 845 24.95 7.5 45.4 41 -5.1 22.9
10:00 1015 29.97 845 24.95 7.5 45.4 41 -5 23
10:05 1015 29.97 844 24.92 7.5 45.4 41 -4.9 23.2
10:10 1015 29.97 845 24.95 7.5 45.4 41 -4.9 23.2
10:15 1015 29.97 845 24.95 7.6 45.6 41 -4.8 23.4
10:20 1015 29.97 845 24.95 7.6 45.7 40 -5 23
10:25 1015 29.97 845 24.95 7.9 46.2 40 -5 23
10:30 1015 29.97 845 24.95 8 46.4 40 -4.7 23.5
10:35 1015 29.97 845 24.95 8.1 46.6 40 -4.7 23.5
10:40 1015 29.97 845 24.95 8.1 46.6 42 -4.2 24.5
10:45 1015 29.97 845 24.95 8 46.4 40 -4.6 23.7
10:50 1015 29.97 845 24.95 8 46.5 39 -5 23
10:55 1015 29.97 845 24.95 8.4 47.1 39 -4.9 23.2
11:00 1015 29.97 845 24.95 8.5 47.4 39 -4.7 23.6
11:05 1016 30 845 24.95 8.7 47.7 39 -4.5 23.9
11:10 1016 30 845 24.95 8.8 47.8 38 -4.9 23.2
11:15 1016 30 845 24.95 8.9 47.9 37 -4.9 23.1
11:20 1016 30 845 24.95 9 48.3 37 -4.7 23.5
11:25 1016 30 845 24.95 9.1 48.3 38 -4.6 23.7
11:30 1016 30 845 24.95 9 48.2 39 -4.2 24.5
11:35 1016 30 845 24.95 9 48.1 39 -4.1 24.5
11:40 1016 30 845 24.95 9 48.1 40 -4 24.7
11:45 1016 30 845 24.95 9.1 48.4 38 -4.3 24.2
11:50 1016 30 845 24.95 9.1 48.4 37 -4.8 23.3
11:55 1016 30 845 24.95 8.9 48.1 37 -5.1 22.8
12:00 1016 30 845 24.95 8.9 48.1 38 -4.7 23.6
12:05 1016 30 845 24.95 9.3 48.7 39 -4 24.8
12:10 1016 30 845 24.95 9.4 48.9 37 -4.7 23.5
12:15 1016 30 845 24.95 9.4 48.9 37 -4.7 23.5
12:20 1016 30 845 24.95 9.3 48.8 38 -4.2 24.5
12:25 1016 30 845 24.95 9.3 48.8 38 -4.1 24.5
12:30 1016 30 845 24.95 9.3 48.7 38 -4.2 24.5
12:35 1016 30 845 24.95 9 48.1 40 -4 24.8
12:40 1016 30 845 24.95 8.7 47.6 42 -3.6 25.6
12:45 1016 30 845 24.95 8.6 47.5 41 -3.9 25
12:50 1016 30 845 24.95 8.5 47.4 42 -3.7 25.4
12:55 1016 30 845 24.95 8.3 46.9 43 -3.6 25.6
13:00 1016 30 845 24.95 8.2 46.8 42 -4.1 24.7
13:05 1016 30 845 24.95 8.3 46.9 42 -4 24.7
13:10 1016 30 845 24.95 8.2 46.7 41 -4.2 24.4
13:15 1016 30 845 24.95 8.4 47.1 40 -4.3 24.3
13:20 1016 30 845 24.95 8.5 47.2 40 -4.5 24
13:25 1016 30 845 24.95 8.5 47.3 40 -4.5 24
13:30 1016 30 845 24.95 8.4 47.2 41 -4.1 24.6
13:35 1015 29.97 845 24.95 8.4 47.1 40 -4.3 24.3
13:40 1015 29.97 845 24.95 8.4 47.1 40 -4.5 23.9
13:45 1015 29.97 845 24.95 8.4 47.1 40 -4.3 24.3
13:50 1015 29.97 844 24.92 8.4 47.1 40 -4.4 24
13:55 1015 29.97 844 24.92 8.3 46.9 41 -4.3 24.2
14:00 1015 29.97 844 24.92 8.3 46.9 40 -4.6 23.7
14:05 1015 29.97 844 24.92 8.5 47.2 39 -4.6 23.7
14:10 1015 29.97 844 24.92 8.5 47.3 40 -4.3 24.2
14:15 1015 29.97 844 24.92 8.4 47.1 41 -4.1 24.5
14:20 1015 29.97 844 24.92 8.4 47.1 39 -4.6 23.7
14:25 1015 29.97 844 24.92 8.5 47.2 40 -4.4 24
14:30 1015 29.97 844 24.92 8.5 47.3 39 -4.5 23.9
14:35 1015 29.97 844 24.92 8.5 47.2 40 -4.3 24.2
14:40 1015 29.97 844 24.92 8.4 47.1 39 -4.6 23.7
14:45 1015 29.97 844 24.92 8.5 47.3 40 -4.3 24.2
14:50 1015 29.97 844 24.92 8.6 47.5 40 -4.2 24.4
14:55 1015 29.97 844 24.92 8.5 47.4 40 -4.2 24.4
15:00 1015 29.97 844 24.92 8.5 47.3 40 -4.4 24.1
15:05 1015 29.97 844 24.92 8.6 47.5 39 -4.5 23.9
15:10 1015 29.97 844 24.92 8.7 47.7 40 -4.2 24.4
15:15 1015 29.97 844 24.92 8.7 47.6 39 -4.4 24.1
15:20 1015 29.97 844 24.92 8.5 47.3 42 -3.8 25.2
15:25 1015 29.97 844 24.92 8.3 47 41 -4.1 24.6
15:30 1015 29.97 844 24.92 8.3 47 41 -4 24.8
15:35 1015 29.97 844 24.92 8.4 47.1 42 -3.8 25.2
15:40 1015 29.97 844 24.92 8.4 47.1 42 -3.9 25
15:45 1015 29.97 844 24.92 8.3 46.9 41 -4.3 24.2
15:50 1015 29.97 844 24.92 8.7 47.7 39 -4.5 23.9
15:55 1015 29.97 844 24.92 8.8 47.9 38 -4.6 23.7
16:00 1015 29.97 844 24.92 9 48.1 39 -4.1 24.6
16:05 1015 29.97 844 24.92 9 48.2 39 -4.1 24.7
16:10 1015 29.97 844 24.92 9 48.2 39 -4.4 24.1
16:15 1015 29.97 844 24.92 9.3 48.8 38 -4.2 24.5
16:20 1015 29.97 844 24.92 9.8 49.6 37 -4.2 24.4
16:25 1015 29.97 844 24.92 9.9 49.8 38 -3.7 25.3
16:30 1015 29.97 844 24.92 9.6 49.2 39 -3.8 25.1
16:35 1015 29.97 844 24.92 9.4 48.8 39 -3.9 25
16:40 1015 29.97 844 24.92 9.1 48.4 40 -3.7 25.4
16:45 1015 29.97 844 24.92 8.9 48 41 -3.8 25.2
16:50 1015 29.97 844 24.92 8.8 47.9 42 -3.4 25.8
16:55 1015 29.97 844 24.92 8.7 47.7 42 -3.4 25.8
17:00 1015 29.97 844 24.92 8.8 47.8 42 -3.5 25.7
17:05 1015 29.97 844 24.92 8.8 47.8 41 -3.6 25.4
17:10 1015 29.97 844 24.92 8.8 47.8 41 -3.7 25.3
17:15 1015 29.97 844 24.92 8.7 47.7 42 -3.6 25.5
17:20 1015 29.97 844 24.92 8.6 47.6 43 -3.3 26
17:25 1015 29.97 844 24.92 8.5 47.3 43 -3.4 25.8
17:30 1015 29.97 844 24.92 8.6 47.4 42 -3.8 25.2
17:35 1015 29.97 844 24.92 8.7 47.7 41 -3.6 25.5
17:40 1015 29.97 844 24.92 8.9 48 41 -3.7 25.3
17:45 1015 29.97 844 24.92 8.9 48.1 41 -3.7 25.4
17:50 1015 29.97 844 24.92 9 48.3 40 -3.7 25.4
17:55 1015 29.97 844 24.92 9.2 48.5 40 -3.8 25.2
18:00 1015 29.97 844 24.92 9.2 48.5 40 -3.7 25.4
18:05 1015 29.97 844 24.92 9.1 48.3 40 -3.9 24.9
18:10 1015 29.97 844 24.92 9 48.2 41 -3.6 25.4
18:15 1015 29.97 844 24.92 8.8 47.8 42 -3.4 26
18:20 1015 29.97 844 24.92 8.6 47.4 43 -3.3 26
18:25 1015 29.97 845 24.95 8.3 47 45 -3 26.6
18:30 1015 29.97 845 24.95 8 46.4 46 -3 26.6
18:35 1015 29.97 845 24.95 7.9 46.2 46 -3.1 26.5
18:40 1015 29.97 845 24.95 7.8 46.1 47 -2.7 27.1
18:45 1015 29.97 845 24.95 7.6 45.6 48 -2.7 27.2
18:50 1016 30 845 24.95 7.6 45.6 48 -2.7 27.1
18:55 1016 30 845 24.95 7.6 45.8 48 -2.6 27.4
19:00 1016 30 845 24.95 7.6 45.6 48 -2.6 27.2
19:05 1016 30 845 24.95 7.6 45.7 47 -3 26.6
19:10 1016 30 845 24.95 7.8 46 46 -3.1 26.5
19:15 1016 30 845 24.95 7.9 46.2 46 -3.1 26.5
19:20 1016 30 845 24.95 8 46.4 45 -3.3 26.1
19:25 1016 30 845 24.95 8.1 46.5 44 -3.3 26
19:30 1016 30 845 24.95 8.1 46.5 45 -3.3 26.1
19:35 1016 30 845 24.95 8 46.5 45 -3.3 26.1
19:40 1016 30 845 24.95 8 46.4 45 -3.2 26.3
19:45 1016 30 845 24.95 7.9 46.2 46 -3.1 26.4
19:50 1016 30 845 24.95 7.8 46 46 -3.1 26.4
19:55 1016 30 845 24.95 7.7 45.9 47 -2.9 26.8
20:00 1016 30 845 24.95 7.6 45.8 47 -3 26.6
20:05 1016 30 845 24.95 7.6 45.7 46 -3.2 26.2
20:10 1016 30 845 24.95 7.6 45.7 47 -3 26.6
20:15 1016 30 845 24.95 7.6 45.7 47 -3 26.6
20:20 1016 30 845 24.95 7.6 45.6 48 -2.6 27.3
20:25 1016 30 845 24.95 7.3 45.1 49 -2.6 27.2
20:30 1016 30 845 24.95 7.2 44.9 49 -2.8 27
20:35 1016 30 845 24.95 7.1 44.8 49 -2.8 27
20:40 1016 30 845 24.95 7 44.6 50 -2.7 27.1
20:45 1016 30 845 24.95 6.9 44.5 52 -2.1 28.2
20:50 1016 30 845 24.95 6.9 44.4 51 -2.5 27.5
20:55 1016 30 845 24.95 6.9 44.4 51 -2.6 27.3
21:00 1016 30 845 24.95 6.9 44.4 50 -2.8 27
21:05 1016 30 845 24.95 6.8 44.3 50 -2.9 26.8
21:10 1016 30 845 24.95 6.9 44.3 50 -2.8 26.9
21:15 1016 30 845 24.95 6.8 44.2 50 -2.9 26.8
21:20 1016 30 845 24.95 6.7 44.1 50 -2.9 26.8
21:25 1016 30 845 24.95 6.7 44.1 50 -2.9 26.7
21:30 1016 30 845 24.95 6.8 44.2 51 -2.6 27.3
21:35 1016 30 845 24.95 6.7 44 51 -2.7 27.1
21:40 1016 30 845 24.95 6.7 44 51 -2.8 26.9
21:45 1016 30 845 24.95 6.7 44 51 -2.8 26.9
21:50 1016 30 845 24.95 6.6 43.9 50 -3 26.6
21:55 1016 30 845 24.95 6.7 44.1 50 -3 26.6
22:00 1016 30 845 24.95 6.8 44.2 50 -3 26.7
22:05 1016 30 845 24.95 6.7 44.1 50 -2.9 26.7
22:10 1016 30 845 24.95 6.7 44.1 50 -2.9 26.9
22:15 1016 30 845 24.95 6.4 43.5 54 -2.2 28
22:20 1016 30 845 24.95 5.7 42.2 55 -2.7 27.2
22:25 1016 30 845 24.95 5.8 42.4 54 -2.8 26.9
22:30 1016 30 845 24.95 6 42.8 54 -2.7 27.1
22:35 1016 30 845 24.95 6.1 42.9 53 -2.7 27.1
22:40 1016 30 845 24.95 6 42.7 54 -2.6 27.3
22:45 1016 30 845 24.95 5.9 42.6 54 -2.8 27
22:50 1016 30 845 24.95 5.9 42.6 55 -2.5 27.6
22:55 1016 30 845 24.95 5.7 42.3 54 -2.8 27
23:00 1016 30 845 24.95 5.7 42.2 54 -2.8 27
23:05 1016 30 845 24.95 5.6 42.2 54 -2.8 26.9
23:10 1016 30 845 24.95 5.9 42.6 52 -3.1 26.4
23:15 1016 30 845 24.95 6.1 43 52 -3 26.6
23:20 1015 29.97 845 24.95 6 42.7 55 -2.4 27.6
23:25 1016 30 845 24.95 5.6 42.1 56 -2.6 27.4
23:30 1015 29.97 845 24.95 5.4 41.6 56 -2.6 27.3
23:35 1015 29.97 845 24.95 5.3 41.6 56 -2.9 26.9
23:40 1015 29.97 845 24.95 5.7 42.2 54 -3 26.6
23:45 1015 29.97 845 24.95 5.7 42.2 56 -2.5 27.6
23:50 1015 29.97 845 24.95 5.3 41.6 56 -2.7 27.1
23:55 1015 29.97 845 24.95 5.4 41.6 56 -2.7 27.1
24:00 1015 29.97 845 24.95 5.4 41.7 57 -2.6 27.4